Hurlburt Field
KHRT : now visible

Airfield :











YOU CAN JOIN US ON...

 
LOGIN :

Register | Disclaimer

   EN    FR    IT 

 









Legend :    VFR   Marginal VFR   IFR   Intensive IFR   Very Intensive IFR
Visi :
Ceiling :
>= 8 km
>= 3000ft
5 to 8 km
1000 to 3000 ft
1500m to 5 km
500 to 1000 ft
800 to 1500m
200 to 500 ft
< 800m
< 200 ft
Symbols :   Thunderstorms  Fog  Heavy snow  Heavy precipitations  Wind > 20 kt






- Airport Elevation : 38 ft


KHRT - Hurlburt Field

CURRENT METAR :
  • 082032Z AUTO 22009KT 10SM CLR 33/23 A3010 RMK AO2 LTG DSNT N RAB09E16DZB27E32 SLP194 $

EXPIRED METARs :
  • 082027Z AUTO 22009KT 10SM -DZ FEW220 33/23 A3010 RMK AO2 LTG DSNT N RAB09E16DZB27 SLP194 $
  • 082009Z AUTO 20008KT 10SM -RA FEW180 33/24 A3011 RMK AO2 RAB09 SLP198 $
  • 081956Z AUTO 21009KT 10SM FEW150 SCT180 SCT210 33/24 A3011 RMK AO2 LTG DSNT NW SLP198 T03270236 $

TAF TAF KHRT
Valid from the 08 at 13:00 until the 09 at 19:00 UTC


081300Z 0813/0919 35005KT 9999 FEW020 QNH3006INS
BECMG 0811/0812 18010KT 9999 SCT020 BKN250 QNH3011INS
BECMG 0904/0905 35005KT 9999 SKC QNH3009INS TX33/0818Z TN22/0910Z LAST NO AMDS AFT 0817 NEXT 0911
KZJX FIR / North America



MET'MAP, your aeronautical weather chart ! - Copyright ORBIFLY December 2007 - Disclaimer

ORBIFLY MET'MAP TEAM :

Programming & Development : Alexandra Zaïnal
Concept & original design : Baudouin d'Aumeries
Assistance for programming : Marc-Olivier Méhu
Technical & hardware support : Manuel Goepfert

Contact : metmap@orbifly.com




SOURCES & CREDITS :

   NOAA       Earth
Advisory